Terminal Aerodrome Forecast
Issued by NWS

Home | Current Version | Previous Version | Text Only | Print | Product List | Glossary On
Versions: 1 2 3 4 5 6 7 8 9 10 11 12 13 14 15 16 17 18
000
FTAK31 PANC 281122
TAFAVD
TAF
PAVD 281122Z 2812/2912 00000KT 2SM -SN SCT001 OVC012
     FM281400 VRB03KT 4SM -SN SCT003 BKN015 OVC030
     FM281800 VRB03KT 1/2SM -SN FG SCT002 OVC008
      AMD LTD TO CLD VIS AND WIND=

USA.gov is the U.S. government's official web portal to all federal, state and local government web resources and services.